South Padre Island, Texas
Current Conditions -  °F | °C
As of 7:15 AM on Thursday 23 Oct 2014 (Local Time) from KSPL Reporting Station
Broken Clouds Broken Clouds  
Wind Chill: 77°   Ceiling: 3100
Heat Index: 79°   Visibility: NA
Dew Point: 68°   Wind: 9mph
Humidity: 74%   Direction: 30°NNE
Pressure: 30.01"   Gusts: NA
Location:  26.1°N, 97.17°W
Report Text: KSPL 231215Z AUTO 03008KT BKN031 25/20 A3001 RMK AO1 VSBY 1/2V5
Loading
Personal Weather Stations






























Interactive Weather Map
Tropical Storm Tracking
New forecast layout! Learn more

10-Day Weather Forecast

Advertisements
Track Severe Weather on mobile